Time;durP1;ratioP1;P1;durP2;ratioP2;P2;SDS_P1;SDS_P2;PMS_P1;PMS_P2;Temp;Humidity;BMP_temperature;BMP_pressure;BME280_temperature;BME280_humidity;BME280_pressure;Samples;Min_cycle;Max_cycle;Signal;HPM_P1;HPM_P2
2022/02/17 00:00:37;;;;;;;15.18;1.52;;;;;;;12.69;100.00;99544.25;5276920;28;20016;-78
2022/02/17 00:03:07;;;;;;;7.45;2.40;;;;;;;12.70;100.00;99556.69;5268636;28;20100;-78
2022/02/17 00:05:38;;;;;;;12.68;1.90;;;;;;;12.71;100.00;99562.88;5286597;28;20537;-78
2022/02/17 00:08:09;;;;;;;10.15;2.00;;;;;;;12.74;100.00;99532.03;5288170;28;20015;-78
2022/02/17 00:10:39;;;;;;;8.88;2.28;;;;;;;12.77;100.00;99574.66;5302363;28;20253;-78
2022/02/17 00:13:10;;;;;;;7.80;1.75;;;;;;;12.77;100.00;99586.25;5305226;28;20016;-78
2022/02/17 00:15:40;;;;;;;10.13;1.40;;;;;;;12.75;100.00;99591.03;5299440;28;20012;-78
2022/02/17 00:18:14;;;;;;;10.15;2.03;;;;;;;12.78;100.00;99587.91;5291033;28;20028;-78
2022/02/17 00:20:44;;;;;;;11.75;2.72;;;;;;;12.76;100.00;99595.38;5287912;28;20023;-79
2022/02/17 00:23:15;;;;;;;12.27;1.70;;;;;;;12.76;100.00;99583.78;5282793;28;20084;-78
2022/02/17 00:25:45;;;;;;;10.18;1.30;;;;;;;12.74;100.00;99615.44;5285833;28;20383;-78
2022/02/17 00:28:16;;;;;;;8.27;1.77;;;;;;;12.73;100.00;99619.19;5286322;28;20482;-78
2022/02/17 00:30:47;;;;;;;12.85;2.08;;;;;;;12.74;100.00;99585.84;5285970;28;20387;-79
2022/02/17 00:33:17;;;;;;;19.42;2.22;;;;;;;12.76;100.00;99616.06;5286197;28;20035;-79
2022/02/17 00:35:48;;;;;;;13.13;2.33;;;;;;;12.66;100.00;99621.88;5285913;28;20035;-79
2022/02/17 00:38:18;;;;;;;15.75;2.00;;;;;;;12.63;100.00;99646.50;5285820;28;20020;-79
2022/02/17 00:40:49;;;;;;;10.82;1.95;;;;;;;12.62;100.00;99636.78;5285729;28;20031;-79
2022/02/17 00:43:19;;;;;;;19.90;3.75;;;;;;;12.62;100.00;99640.31;5267666;28;20020;-79
2022/02/17 00:45:50;;;;;;;11.43;2.25;;;;;;;12.61;100.00;99637.81;5285508;28;20027;-79
2022/02/17 00:48:20;;;;;;;19.50;2.42;;;;;;;12.58;100.00;99657.06;5285547;28;20313;-79
2022/02/17 00:50:50;;;;;;;22.73;2.60;;;;;;;12.56;100.00;99670.72;5285704;28;20024;-79
2022/02/17 00:53:21;;;;;;;14.48;3.03;;;;;;;12.51;100.00;99677.78;5285305;28;20027;-79
2022/02/17 00:55:51;;;;;;;31.13;4.22;;;;;;;12.44;100.00;99688.50;5278684;28;20016;-79
2022/02/17 00:58:22;;;;;;;18.48;3.25;;;;;;;12.43;100.00;99670.72;5285610;28;20016;-79
2022/02/17 01:00:52;;;;;;;21.52;3.00;;;;;;;12.43;100.00;99697.63;5284512;28;20035;-79
2022/02/17 01:03:23;;;;;;;21.38;3.25;;;;;;;12.35;100.00;99706.72;5278728;28;20059;-79
2022/02/17 01:05:53;;;;;;;20.27;3.17;;;;;;;12.27;100.00;99719.53;5269684;28;20071;-79
2022/02/17 01:08:24;;;;;;;28.35;3.72;;;;;;;12.19;100.00;99750.13;5264320;28;20386;-78
2022/02/17 01:10:54;;;;;;;26.77;4.90;;;;;;;12.09;100.00;99731.69;5266176;28;20024;-78
2022/02/17 01:13:25;;;;;;;34.08;4.28;;;;;;;12.00;100.00;99718.63;5285631;28;20027;-79
2022/02/17 01:15:55;;;;;;;25.00;3.95;;;;;;;11.97;100.00;99751.31;5285391;28;20110;-79
2022/02/17 01:18:26;;;;;;;21.15;3.28;;;;;;;11.83;100.00;99758.50;5274517;28;20023;-81
2022/02/17 01:20:56;;;;;;;28.13;4.95;;;;;;;11.74;100.00;99759.66;5265749;28;20114;-81
2022/02/17 01:23:28;;;;;;;27.10;4.18;;;;;;;11.71;100.00;99754.72;5276307;28;20491;-81
2022/02/17 01:25:59;;;;;;;34.83;4.75;;;;;;;11.74;100.00;99773.91;5264323;28;20008;-81
2022/02/17 01:28:30;;;;;;;38.15;5.32;;;;;;;11.64;100.00;99776.97;5253205;28;20022;-79
2022/02/17 01:31:00;;;;;;;22.00;3.78;;;;;;;11.59;100.00;99773.22;5285203;28;20406;-78
2022/02/17 01:33:31;;;;;;;33.85;4.25;;;;;;;11.53;100.00;99776.72;5285851;28;20063;-83
2022/02/17 01:36:06;;;;;;;31.50;4.93;;;;;;;11.55;100.00;99802.38;5267752;28;20073;-79
2022/02/17 01:38:37;;;;;;;;;;;;;;;11.54;100.00;99787.25;5285483;28;20083;-78
2022/02/17 01:41:08;;;;;;;24.10;4.10;;;;;;;11.58;100.00;99819.94;5285150;28;20170;-78
2022/02/17 01:43:39;;;;;;;31.73;4.97;;;;;;;11.53;100.00;99815.16;5285046;28;20070;-78
2022/02/17 01:46:10;;;;;;;27.60;4.53;;;;;;;11.46;100.00;99811.59;5272134;28;20066;-78
2022/02/17 01:48:40;;;;;;;28.88;4.53;;;;;;;11.44;100.00;99821.69;5263722;28;20028;-78
2022/02/17 01:51:11;;;;;;;29.45;4.65;;;;;;;11.47;100.00;99850.03;5264098;28;20111;-78
2022/02/17 01:53:41;;;;;;;30.98;4.60;;;;;;;11.38;100.00;99843.97;5263400;28;20051;-78
2022/02/17 01:56:12;;;;;;;32.17;4.57;;;;;;;11.36;100.00;99835.28;5245946;28;20028;-78
2022/02/17 01:58:42;;;;;;;26.10;5.25;;;;;;;11.32;100.00;99850.97;5284983;28;20020;-78
2022/02/17 02:01:13;;;;;;;43.67;5.55;;;;;;;11.28;100.00;99856.91;5285238;28;20098;-78
2022/02/17 02:03:43;;;;;;;25.90;5.50;;;;;;;11.25;100.00;99863.50;5286632;28;20167;-78
2022/02/17 02:06:30;;;;;;;27.05;3.95;;;;;;;11.29;100.00;99858.56;5284830;28;20035;-77
2022/02/17 02:09:01;;;;;;;25.50;4.20;;;;;;;11.34;100.00;99872.22;5285126;28;20019;-77
2022/02/17 02:11:32;;;;;;;36.85;4.65;;;;;;;11.31;100.00;99884.22;5285470;28;20026;-79
2022/02/17 02:14:02;;;;;;;28.38;4.88;;;;;;;11.31;100.00;99878.84;5285481;28;20027;-79
2022/02/17 02:16:33;;;;;;;30.10;4.70;;;;;;;11.30;100.00;99876.34;5285229;28;20024;-78
2022/02/17 02:19:03;;;;;;;28.83;4.90;;;;;;;11.23;100.00;99892.38;5284901;28;20474;-78
2022/02/17 02:21:34;;;;;;;24.50;4.38;;;;;;;11.20;100.00;99890.13;5286533;28;20363;-78
2022/02/17 02:24:17;;;;;;;33.85;6.30;;;;;;;11.11;100.00;99894.78;5287095;28;20030;-78
2022/02/17 02:26:47;;;;;;;27.10;4.82;;;;;;;11.08;100.00;99913.13;5271484;28;20032;-78
2022/02/17 02:29:18;;;;;;;26.00;4.45;;;;;;;11.02;100.00;99909.34;5288552;28;20031;-79
2022/02/17 02:31:48;;;;;;;26.55;4.90;;;;;;;11.02;100.00;99932.66;5270919;28;20024;-78
2022/02/17 02:34:19;;;;;;;32.50;4.68;;;;;;;11.07;100.00;99938.28;5270342;28;20055;-78
2022/02/17 02:36:50;;;;;;;37.70;4.95;;;;;;;11.07;100.00;99940.97;5289373;28;20110;-78
2022/02/17 02:39:20;;;;;;;27.40;4.97;;;;;;;11.06;100.00;99958.94;5289224;28;20015;-78
2022/02/17 02:41:52;;;;;;;30.42;5.03;;;;;;;11.09;100.00;99953.22;5288695;28;20462;-78
2022/02/17 02:44:22;;;;;;;31.77;4.75;;;;;;;11.07;100.00;99941.81;5288826;28;20031;-78
2022/02/17 02:46:56;;;;;;;27.30;4.32;;;;;;;11.03;100.00;99955.78;5289140;28;20053;-78
2022/02/17 02:49:26;;;;;;;27.00;4.72;;;;;;;10.98;100.00;99964.41;5289007;28;20019;-78
2022/02/17 02:51:58;;;;;;;36.90;5.55;;;;;;;10.92;100.00;99956.31;5289317;28;20078;-78
2022/02/17 02:54:29;;;;;;;32.17;5.50;;;;;;;10.81;100.00;99955.78;5288867;28;20063;-78
2022/02/17 02:57:00;;;;;;;34.17;5.32;;;;;;;10.76;100.00;99968.94;5275419;28;20118;-79
2022/02/17 02:59:31;;;;;;;41.90;5.22;;;;;;;10.71;100.00;99960.63;5288651;28;20285;-78
2022/02/17 03:02:02;;;;;;;30.27;4.88;;;;;;;10.63;100.00;99963.41;5288610;28;20031;-78
2022/02/17 03:04:32;;;;;;;27.77;4.60;;;;;;;10.62;100.00;99967.09;5288282;28;20026;-78
2022/02/17 03:07:03;;;;;;;44.95;5.38;;;;;;;10.53;100.00;99969.06;5288698;28;20020;-78
2022/02/17 03:09:34;;;;;;;42.35;5.88;;;;;;;10.43;100.00;99981.09;5266677;28;20030;-78
2022/02/17 03:12:05;;;;;;;36.03;5.75;;;;;;;10.42;100.00;99984.81;5288957;28;20036;-78
2022/02/17 03:14:35;;;;;;;33.88;5.38;;;;;;;10.47;100.00;99991.25;5288443;28;20031;-79
2022/02/17 03:17:06;;;;;;;31.10;4.82;;;;;;;10.45;100.00;99996.00;5288472;28;20269;-78
2022/02/17 03:19:36;;;;;;;36.00;5.00;;;;;;;10.47;100.00;100017.25;5270561;28;20485;-78
2022/02/17 03:22:07;;;;;;;32.90;5.35;;;;;;;10.44;100.00;100017.59;5283997;28;20031;-78
2022/02/17 03:24:37;;;;;;;34.47;4.93;;;;;;;10.37;100.00;100018.34;5288024;28;20497;-78
2022/02/17 03:27:08;;;;;;;35.35;6.50;;;;;;;10.33;100.00;100000.97;5288285;28;20066;-78
2022/02/17 03:29:38;;;;;;;34.00;8.05;;;;;;;10.35;100.00;100031.13;5288077;28;20024;-78
2022/02/17 03:32:09;;;;;;;38.88;5.43;;;;;;;10.30;100.00;100036.22;5287923;28;20020;-78
2022/02/17 03:34:39;;;;;;;38.53;4.90;;;;;;;10.23;100.00;100023.69;5288025;28;20028;-78
2022/02/17 03:37:10;;;;;;;43.05;5.70;;;;;;;10.21;100.00;100020.38;5288176;28;20106;-78
2022/02/17 03:39:41;;;;;;;40.55;6.50;;;;;;;10.14;100.00;100028.31;5288157;28;20283;-78
2022/02/17 03:42:11;;;;;;;31.25;5.07;;;;;;;10.11;100.00;100034.88;5287762;28;20020;-78
2022/02/17 03:44:42;;;;;;;34.08;5.97;;;;;;;10.09;100.00;100046.75;5287649;28;20490;-78
2022/02/17 03:47:12;;;;;;;35.10;6.72;;;;;;;10.11;100.00;100047.44;5288422;28;20410;-78
2022/02/17 03:49:43;;;;;;;45.40;5.85;;;;;;;10.23;100.00;100034.41;5287967;28;20032;-78
2022/02/17 03:52:13;;;;;;;33.30;4.88;;;;;;;10.24;100.00;100036.09;5288139;28;20585;-78
2022/02/17 03:54:44;;;;;;;38.92;5.30;;;;;;;10.25;100.00;100037.78;5287176;28;20375;-79
2022/02/17 03:57:14;;;;;;;47.38;6.45;;;;;;;10.22;100.00;100041.63;5287664;28;20115;-78
2022/02/17 03:59:45;;;;;;;54.47;7.50;;;;;;;10.24;100.00;100053.03;5287035;28;20034;-79
2022/02/17 04:02:15;;;;;;;41.83;5.20;;;;;;;10.27;100.00;100041.94;5287138;28;20167;-78
2022/02/17 04:04:46;;;;;;;46.95;6.13;;;;;;;10.29;100.00;100060.50;5286910;28;20011;-78
2022/02/17 04:07:16;;;;;;;35.28;5.10;;;;;;;10.34;100.00;100058.97;5286613;28;20028;-78
2022/02/17 04:09:47;;;;;;;40.63;5.70;;;;;;;10.35;100.00;100059.78;5286786;28;20567;-79
2022/02/17 04:12:17;;;;;;;33.40;5.93;;;;;;;10.39;100.00;100069.09;5287762;28;20443;-78
2022/02/17 04:14:48;;;;;;;33.17;5.80;;;;;;;10.34;100.00;100074.19;5287376;28;20104;-78
2022/02/17 04:17:19;;;;;;;36.92;5.20;;;;;;;10.34;100.00;100080.41;5287660;28;20497;-78
2022/02/17 04:19:50;;;;;;;33.15;5.47;;;;;;;10.38;100.00;100092.41;5287437;28;20091;-78
2022/02/17 04:22:20;;;;;;;40.47;6.07;;;;;;;10.36;100.00;100099.81;5283694;28;20463;-78
2022/02/17 04:24:52;;;;;;;49.33;7.03;;;;;;;10.47;100.00;100119.16;5286982;28;20016;-78
2022/02/17 04:27:22;;;;;;;47.17;6.13;;;;;;;10.40;100.00;100121.75;5287730;28;20024;-78
2022/02/17 04:29:53;;;;;;;52.50;7.68;;;;;;;10.40;100.00;100115.56;5288132;28;20035;-78
2022/02/17 04:32:23;;;;;;;51.58;9.77;;;;;;;10.41;100.00;100123.41;5286722;28;20167;-78
2022/02/17 04:34:54;;;;;;;43.38;7.28;;;;;;;10.37;100.00;100132.81;5286861;28;20449;-78
2022/02/17 04:37:24;;;;;;;34.05;5.15;;;;;;;10.37;100.00;100130.13;5286762;28;20055;-78
2022/02/17 04:39:55;;;;;;;46.80;7.53;;;;;;;10.39;100.00;100141.50;5288278;28;20027;-78
2022/02/17 04:42:27;;;;;;;39.13;7.40;;;;;;;10.42;100.00;100151.03;5287805;28;20433;-78
2022/02/17 04:44:58;;;;;;;42.25;6.30;;;;;;;10.37;100.00;100149.75;5286613;28;20073;-78
2022/02/17 04:47:28;;;;;;;45.70;7.30;;;;;;;10.35;100.00;100154.47;5287507;28;20039;-78
2022/02/17 04:49:59;;;;;;;42.42;7.38;;;;;;;10.30;100.00;100178.31;5287906;28;20016;-78
2022/02/17 04:52:29;;;;;;;52.70;7.72;;;;;;;10.33;100.00;100182.47;5288933;28;20070;-78
2022/02/17 04:55:00;;;;;;;52.60;8.40;;;;;;;10.31;100.00;100181.81;5283068;28;20020;-78
2022/02/17 04:57:30;;;;;;;50.53;9.48;;;;;;;10.24;100.00;100173.66;5267887;28;20024;-78
2022/02/17 05:00:01;;;;;;;50.50;9.38;;;;;;;10.27;100.00;100181.34;5287217;28;20019;-78
2022/02/17 05:02:31;;;;;;;55.50;10.10;;;;;;;10.31;100.00;100187.19;5287090;28;20136;-78
2022/02/17 05:05:02;;;;;;;69.05;13.20;;;;;;;10.22;100.00;100185.53;5287367;28;20019;-78
2022/02/17 05:07:32;;;;;;;60.65;10.07;;;;;;;10.23;100.00;100184.53;5287838;28;20045;-78
2022/02/17 05:10:03;;;;;;;55.20;10.80;;;;;;;10.22;100.00;100197.09;5287946;28;20102;-78
2022/02/17 05:12:34;;;;;;;48.55;8.02;;;;;;;10.23;100.00;100203.28;5287339;28;20043;-78
2022/02/17 05:15:05;;;;;;;49.58;11.88;;;;;;;10.25;100.00;100198.63;5286720;28;20024;-78
2022/02/17 05:17:35;;;;;;;101.85;34.53;;;;;;;10.24;100.00;100194.25;5287063;28;20027;-78
2022/02/17 05:20:06;;;;;;;57.08;9.75;;;;;;;10.21;100.00;100210.69;5286781;28;20482;-78
2022/02/17 05:22:55;;;;;;;41.58;7.95;;;;;;;10.18;100.00;100216.38;5282666;28;20398;-78
2022/02/17 05:25:26;;;;;;;57.90;12.30;;;;;;;10.24;100.00;100223.75;5286012;28;20016;-78
2022/02/17 05:27:57;;;;;;;66.28;10.40;;;;;;;10.24;100.00;100239.81;5287042;28;20031;-78
2022/02/17 05:30:27;;;;;;;51.50;12.52;;;;;;;10.24;100.00;100226.41;5286363;28;20023;-78
2022/02/17 05:32:58;;;;;;;46.78;7.70;;;;;;;10.22;100.00;100234.63;5268909;28;20024;-78
2022/02/17 05:35:28;;;;;;;61.83;11.80;;;;;;;10.18;100.00;100211.03;5285373;28;20105;-79
2022/02/17 05:37:59;;;;;;;65.72;15.63;;;;;;;10.13;100.00;100247.25;5267430;28;20027;-79
2022/02/17 05:40:29;;;;;;;66.18;9.25;;;;;;;10.18;100.00;100259.28;5285233;28;20147;-78
2022/02/17 05:43:01;;;;;;;45.60;8.02;;;;;;;10.19;100.00;100267.16;5285631;28;20041;-78
2022/02/17 05:45:32;;;;;;;53.05;6.97;;;;;;;10.18;100.00;100275.38;5284738;28;20076;-79
2022/02/17 05:48:02;;;;;;;52.20;11.88;;;;;;;10.18;100.00;100284.22;5253241;28;20111;-79
2022/02/17 05:50:33;;;;;;;56.92;9.45;;;;;;;10.13;100.00;100282.09;5271625;28;20034;-79
2022/02/17 05:53:03;;;;;;;70.53;16.00;;;;;;;10.10;100.00;100277.09;5267068;28;20020;-78
2022/02/17 05:55:34;;;;;;;59.80;12.43;;;;;;;10.10;100.00;100287.81;5276331;28;20403;-78
2022/02/17 05:58:04;;;;;;;55.60;8.55;;;;;;;10.14;100.00;100299.03;5286610;28;20027;-79
2022/02/17 06:00:35;;;;;;;63.92;13.82;;;;;;;10.03;100.00;100304.75;5272865;28;20066;-83
2022/02/17 06:03:05;;;;;;;50.47;8.27;;;;;;;10.00;100.00;100305.13;5290724;28;20027;-81
2022/02/17 06:05:36;;;;;;;72.68;20.92;;;;;;;10.02;100.00;100303.09;5290350;28;20444;-82
2022/02/17 06:08:07;;;;;;;55.60;8.43;;;;;;;9.95;100.00;100312.88;5290791;28;20464;-82
2022/02/17 06:10:37;;;;;;;46.83;9.00;;;;;;;9.97;100.00;100297.44;5290173;28;20083;-77
2022/02/17 06:13:08;;;;;;;58.90;9.98;;;;;;;9.88;100.00;100318.06;5290611;28;20027;-79
2022/02/17 06:15:38;;;;;;;40.45;8.70;;;;;;;9.83;100.00;100315.06;5291693;28;20023;-78
2022/02/17 06:18:09;;;;;;;55.72;11.07;;;;;;;9.86;100.00;100320.94;5292847;28;20024;-81
2022/02/17 06:20:39;;;;;;;61.40;11.23;;;;;;;9.90;100.00;100326.78;5272129;28;20042;-81
2022/02/17 06:23:10;;;;;;;40.38;7.63;;;;;;;9.85;100.00;100339.88;5268657;28;20046;-81
2022/02/17 06:25:41;;;;;;;66.13;7.43;;;;;;;9.85;100.00;100345.22;5291883;28;20015;-79
2022/02/17 06:28:13;;;;;;;53.00;7.68;;;;;;;9.79;100.00;100344.06;5292622;28;20028;-81
2022/02/17 06:30:45;;;;;;;57.22;7.45;;;;;;;9.80;100.00;100347.59;5291668;28;20020;-79
2022/02/17 06:33:15;;;;;;;46.33;7.82;;;;;;;9.77;100.00;100346.06;5271794;28;20055;-79
2022/02/17 06:35:46;;;;;;;50.28;11.57;;;;;;;9.72;100.00;100356.47;5288784;28;20108;-80
2022/02/17 06:38:16;;;;;;;57.10;9.68;;;;;;;9.69;100.00;100362.19;5290565;28;20039;-79
2022/02/17 06:40:46;;;;;;;44.92;8.70;;;;;;;9.66;100.00;100372.41;5289404;28;20023;-79
2022/02/17 06:43:19;;;;;;;65.88;10.27;;;;;;;9.67;100.00;100368.72;5288697;28;20028;-79
2022/02/17 06:45:49;;;;;;;50.80;6.45;;;;;;;9.67;100.00;100382.09;5288272;28;20027;-80
2022/02/17 06:48:19;;;;;;;41.50;6.85;;;;;;;9.62;100.00;100360.38;5288854;28;20034;-79
2022/02/17 06:50:50;;;;;;;58.58;7.40;;;;;;;9.64;100.00;100406.53;5289554;28;20106;-78
2022/02/17 06:53:20;;;;;;;66.13;7.47;;;;;;;9.60;100.00;100400.72;5290367;28;20044;-78
2022/02/17 06:55:51;;;;;;;46.17;7.10;;;;;;;9.59;100.00;100412.44;5278701;28;20496;-78
2022/02/17 06:58:21;;;;;;;54.67;8.10;;;;;;;9.60;100.00;100406.91;5289321;28;20057;-78
2022/02/17 07:00:52;;;;;;;48.10;7.07;;;;;;;9.65;100.00;100402.88;5291492;28;20059;-78
2022/02/17 07:03:23;;;;;;;53.20;6.32;;;;;;;9.59;100.00;100432.03;5290593;28;20023;-78
2022/02/17 07:05:53;;;;;;;60.58;8.70;;;;;;;9.62;100.00;100430.81;5288818;28;20047;-77
2022/02/17 07:08:23;;;;;;;42.30;7.00;;;;;;;9.61;100.00;100434.53;5288112;28;20016;-77
2022/02/17 07:10:54;;;;;;;70.72;8.48;;;;;;;9.60;100.00;100419.47;5287891;28;20027;-77
2022/02/17 07:13:27;;;;;;;43.92;7.25;;;;;;;9.54;100.00;100446.94;5287632;28;20031;-77
2022/02/17 07:15:58;;;;;;;46.00;8.10;;;;;;;9.50;100.00;100456.28;5287707;28;20023;-77
2022/02/17 07:18:28;;;;;;;52.25;6.75;;;;;;;9.52;100.00;100456.94;5269574;28;20372;-77
2022/02/17 07:20:59;;;;;;;45.65;8.60;;;;;;;9.53;100.00;100459.44;5287861;28;20016;-77
2022/02/17 07:23:30;;;;;;;51.25;8.30;;;;;;;9.52;100.00;100475.69;5283553;28;20031;-77
2022/02/17 07:26:00;;;;;;;45.92;7.60;;;;;;;9.54;100.00;100466.50;5287053;28;20027;-77
2022/02/17 07:28:31;;;;;;;52.53;7.72;;;;;;;9.54;100.00;100481.75;5287578;28;20157;-77
2022/02/17 07:31:02;;;;;;;51.17;7.40;;;;;;;9.45;100.00;100499.66;5269155;28;20020;-77
2022/02/17 07:33:34;;;;;;;54.10;8.05;;;;;;;9.47;100.00;100500.28;5287286;28;20023;-77
2022/02/17 07:36:07;;;;;;;51.40;9.07;;;;;;;9.50;100.00;100501.81;5287112;28;20107;-77
2022/02/17 07:38:38;;;;;;;48.13;7.93;;;;;;;9.51;100.00;100512.34;5287078;28;20047;-77
2022/02/17 07:41:08;;;;;;;46.83;6.95;;;;;;;9.60;100.00;100519.38;5287628;28;20322;-78
2022/02/17 07:43:39;;;;;;;39.03;7.22;;;;;;;9.64;100.00;100519.03;5281072;28;20031;-77
2022/02/17 07:46:10;;;;;;;55.50;7.55;;;;;;;9.69;100.00;100530.94;5285699;28;20019;-77
2022/02/17 07:48:41;;;;;;;55.08;7.63;;;;;;;9.71;100.00;100525.41;5286567;28;20019;-77
2022/02/17 07:51:12;;;;;;;51.08;6.35;;;;;;;9.76;100.00;100526.56;5268157;28;20479;-76
2022/02/17 07:53:43;;;;;;;43.85;6.93;;;;;;;9.81;100.00;100550.19;5268207;28;20103;-77
2022/02/17 07:56:14;;;;;;;55.70;7.65;;;;;;;9.86;100.00;100555.88;5272479;28;20024;-77
2022/02/17 07:58:44;;;;;;;50.45;8.35;;;;;;;9.85;100.00;100555.03;5286391;28;20019;-77
2022/02/17 08:01:16;;;;;;;48.80;7.75;;;;;;;9.98;100.00;100554.50;5286305;28;20023;-77
2022/02/17 08:03:46;;;;;;;48.45;10.60;;;;;;;10.02;100.00;100544.28;5286055;28;20027;-77
2022/02/17 08:06:17;;;;;;;53.78;9.13;;;;;;;9.99;100.00;100580.31;5268005;28;20026;-77
2022/02/17 08:08:49;;;;;;;54.65;8.07;;;;;;;10.02;100.00;100569.25;5286208;28;20027;-77
2022/02/17 08:11:20;;;;;;;45.08;10.77;;;;;;;9.94;100.00;100558.56;5286035;28;20027;-77
2022/02/17 08:13:50;;;;;;;56.22;8.80;;;;;;;9.98;100.00;100578.63;5286911;28;20550;-77
2022/02/17 08:16:23;;;;;;;52.83;8.15;;;;;;;9.99;100.00;100583.00;5287513;28;20134;-77
2022/02/17 08:18:54;;;;;;;54.35;8.55;;;;;;;10.11;100.00;100586.16;5295109;28;20082;-77
2022/02/17 08:21:24;;;;;;;52.10;8.70;;;;;;;10.24;100.00;100593.69;5280508;28;20075;-77
2022/02/17 08:23:55;;;;;;;49.03;8.32;;;;;;;10.47;100.00;100591.16;5295775;28;20023;-77
2022/02/17 08:26:25;;;;;;;51.60;10.52;;;;;;;10.78;100.00;100580.47;5278491;28;20071;-77
2022/02/17 08:28:59;;;;;;;48.45;9.02;;;;;;;10.78;100.00;100601.94;5289004;28;20041;-82
2022/02/17 08:31:29;;;;;;;48.08;7.88;;;;;;;10.90;100.00;100608.63;5272419;28;20536;-78
2022/02/17 08:36:47;;;;;;;51.17;9.80;;;;;;;11.49;100.00;100608.13;5286002;28;20122;-79
2022/02/17 08:39:18;;;;;;;39.30;6.90;;;;;;;11.47;100.00;100616.38;5285902;28;20114;-79
2022/02/17 08:41:48;;;;;;;38.90;5.75;;;;;;;11.28;100.00;100612.28;5285976;28;20015;-79
2022/02/17 08:44:19;;;;;;;45.97;6.25;;;;;;;11.45;100.00;100618.41;5267323;28;20408;-79
2022/02/17 08:46:51;;;;;;;43.22;7.40;;;;;;;11.47;100.00;100626.28;5285769;28;20036;-79
2022/02/17 08:49:21;;;;;;;36.97;6.13;;;;;;;11.54;100.00;100622.69;5285625;28;20603;-80
2022/02/17 08:51:52;;;;;;;38.67;6.30;;;;;;;11.66;100.00;100629.34;5285341;28;20043;-85
2022/02/17 08:54:22;;;;;;;47.25;5.95;;;;;;;12.11;100.00;100624.16;5286204;28;20067;-80
2022/02/17 08:56:52;;;;;;;38.38;5.65;;;;;;;12.41;100.00;100643.88;5286462;28;20055;-80
2022/02/17 08:59:23;;;;;;;40.58;6.07;;;;;;;12.56;100.00;100646.59;5273710;28;20031;-79
2022/02/17 09:01:53;;;;;;;25.42;4.65;;;;;;;12.59;100.00;100655.13;5274672;28;20030;-80
2022/02/17 09:04:24;;;;;;;31.55;4.55;;;;;;;12.93;100.00;100664.50;5291211;28;20076;-80
2022/02/17 09:06:54;;;;;;;34.78;5.88;;;;;;;13.02;100.00;100666.09;5290913;28;20028;-80
2022/02/17 09:09:25;;;;;;;34.80;5.80;;;;;;;13.27;100.00;100663.97;5287025;28;20023;-80
2022/02/17 09:11:55;;;;;;;23.00;4.82;;;;;;;13.29;100.00;100680.75;5286027;28;20666;-80
2022/02/17 09:14:26;;;;;;;30.33;4.85;;;;;;;13.16;100.00;100672.50;5267601;28;20027;-80
2022/02/17 09:16:57;;;;;;;34.72;5.35;;;;;;;13.25;100.00;100676.78;5285772;28;20567;-81
2022/02/17 09:19:27;;;;;;;27.90;5.10;;;;;;;13.72;100.00;100673.63;5268177;28;20036;-81
2022/02/17 09:22:01;;;;;;;36.17;5.40;;;;;;;13.79;100.00;100681.75;5265001;28;20043;-80
2022/02/17 09:24:32;;;;;;;33.67;5.63;;;;;;;13.77;100.00;100701.88;5271000;28;20410;-79
2022/02/17 09:27:03;;;;;;;38.90;6.65;;;;;;;12.80;100.00;100670.56;5288197;28;20050;-80
2022/02/17 09:29:34;;;;;;;98.90;34.67;;;;;;;12.35;100.00;100671.50;5249135;28;20038;-80
2022/02/17 09:32:05;;;;;;;48.50;10.95;;;;;;;12.56;100.00;100673.50;5270501;28;20019;-79
2022/02/17 09:34:37;;;;;;;47.03;11.52;;;;;;;12.81;100.00;100685.69;5296228;28;20048;-81
2022/02/17 09:37:07;;;;;;;39.17;6.22;;;;;;;13.29;100.00;100691.53;5296038;28;20481;-79
2022/02/17 09:39:38;;;;;;;33.92;9.95;;;;;;;13.89;100.00;100705.72;5276441;28;20024;-80
2022/02/17 09:42:08;;;;;;;29.80;5.30;;;;;;;13.88;100.00;100717.53;5294550;28;20038;-80
2022/02/17 09:44:40;;;;;;;22.15;5.63;;;;;;;13.99;100.00;100722.44;5293698;28;20016;-79
2022/02/17 09:47:11;;;;;;;26.48;4.47;;;;;;;13.63;100.00;100709.78;5292326;28;20706;-83
2022/02/17 09:49:43;;;;;;;27.00;5.53;;;;;;;13.10;100.00;100738.72;5292528;28;20026;-79
2022/02/17 09:52:16;;;;;;;40.75;6.90;;;;;;;12.83;100.00;100717.81;5293560;28;20027;-78
2022/02/17 09:54:47;;;;;;;36.88;5.72;;;;;;;12.52;100.00;100729.53;5290228;28;20027;-79
2022/02/17 09:57:21;;;;;;;25.38;4.85;;;;;;;11.97;100.00;100740.56;5282220;28;20023;-79
2022/02/17 09:59:51;;;;;;;26.20;5.40;;;;;;;11.90;100.00;100725.13;5274653;28;20028;-78
2022/02/17 10:02:24;;;;;;;32.50;5.05;;;;;;;11.58;100.00;100749.47;5292716;28;20019;-79
2022/02/17 10:04:56;;;;;;;33.30;5.38;;;;;;;11.65;100.00;100715.50;5274146;28;20027;-79
2022/02/17 10:07:30;;;;;;;28.30;5.25;;;;;;;11.73;100.00;100755.75;5292373;28;20390;-79
2022/02/17 10:10:05;;;;;;;33.90;7.00;;;;;;;12.35;100.00;100758.44;5274268;28;20767;-78
2022/02/17 10:13:27;;;;;;;31.10;5.18;;;;;;;12.43;100.00;100746.75;5293099;28;20046;-79
2022/02/17 10:15:58;;;;;;;24.83;6.43;;;;;;;12.49;100.00;100761.34;5270918;28;20043;-79
2022/02/17 10:18:37;;;;;;;28.25;5.30;;;;;;;12.58;100.00;100765.66;5293925;28;20091;-80
2022/02/17 10:21:12;;;;;;;29.92;4.05;;;;;;;12.82;100.00;100762.72;5291529;28;20058;-79
2022/02/17 10:23:45;;;;;;;22.67;3.13;;;;;;;12.40;100.00;100768.66;5285647;28;20028;-79
2022/02/17 10:26:18;;;;;;;14.38;3.10;;;;;;;12.30;100.00;100779.66;5276333;28;20016;-79
2022/02/17 10:29:14;;;;;;;14.60;2.63;;;;;;;11.99;100.00;100782.34;5289395;28;20023;-79
2022/02/17 10:31:45;;;;;;;27.48;3.22;;;;;;;11.62;100.00;100791.94;5289562;28;20088;-79
2022/02/17 10:34:19;;;;;;;16.88;3.38;;;;;;;11.28;100.00;100784.16;5289139;28;20046;-79
2022/02/17 10:36:50;;;;;;;16.13;3.55;;;;;;;11.04;100.00;100795.78;5289540;28;20104;-79
2022/02/17 10:39:22;;;;;;;27.25;4.97;;;;;;;10.98;100.00;100803.69;5289315;28;20039;-80
2022/02/17 10:42:09;;;;;;;24.38;3.33;;;;;;;11.10;100.00;100796.97;5293433;28;20490;-79
2022/02/17 10:44:45;;;;;;;17.17;2.47;;;;;;;11.06;100.00;100788.41;5293213;28;20482;-79
2022/02/17 10:47:33;;;;;;;;;;;;;;;10.91;100.00;100805.38;5293697;28;20487;-79
2022/02/17 10:50:04;;;;;;;21.38;3.38;;;;;;;10.81;100.00;100813.59;5274545;28;19915;-82
2022/02/17 10:52:37;;;;;;;21.40;3.90;;;;;;;10.72;100.00;100815.44;5289280;28;20028;-78
2022/02/17 10:55:27;;;;;;;41.53;12.88;;;;;;;10.72;100.00;100822.66;5282191;28;20019;-78
2022/02/17 10:57:58;;;;;;;34.35;5.90;;;;;;;11.01;100.00;100806.88;5282739;28;20053;-79
2022/02/17 11:00:29;;;;;;;27.60;4.88;;;;;;;11.45;100.00;100810.97;5292377;28;20019;-78
2022/02/17 11:03:00;;;;;;;20.85;3.30;;;;;;;11.94;100.00;100814.31;5292930;28;20068;-78
2022/02/17 11:05:31;;;;;;;26.05;4.88;;;;;;;11.88;100.00;100812.34;5293759;28;20120;-78
2022/02/17 11:08:01;;;;;;;22.52;4.85;;;;;;;11.63;100.00;100830.38;5292724;28;20039;-78
2022/02/17 11:10:32;;;;;;;31.67;6.22;;;;;;;11.40;100.00;100833.81;5291770;28;20062;-78
2022/02/17 11:13:02;;;;;;;17.60;3.65;;;;;;;10.90;100.00;100842.13;5291456;28;20020;-78
2022/02/17 11:15:52;;;;;;;18.83;2.85;;;;;;;10.11;100.00;100841.66;5291809;28;20020;-78
2022/02/17 11:18:23;;;;;;;20.48;3.08;;;;;;;9.69;100.00;100859.56;5279229;28;20031;-78
2022/02/17 11:20:55;;;;;;;19.45;2.88;;;;;;;9.53;100.00;100869.19;5288762;28;20035;-78
2022/02/17 11:23:41;;;;;;;25.95;3.83;;;;;;;9.46;100.00;100853.94;5282601;28;20495;-78
2022/02/17 11:26:32;;;;;;;21.27;3.22;;;;;;;9.45;100.00;100868.31;5286916;28;20024;-78
2022/02/17 11:29:30;;;;;;;24.35;3.58;;;;;;;9.70;100.00;100851.38;5286827;28;20034;-78
2022/02/17 11:32:05;;;;;;;19.60;2.60;;;;;;;9.88;100.00;100862.00;5269728;28;20135;-88
2022/02/17 11:34:41;;;;;;;16.17;3.65;;;;;;;10.12;100.00;100858.56;5287779;28;20020;-81